Time;durP1;ratioP1;P1;durP2;ratioP2;P2;SDS_P1;SDS_P2;PMS_P1;PMS_P2;Temp;Humidity;BMP_temperature;BMP_pressure;BME280_temperature;BME280_humidity;BME280_pressure;Samples;Min_cycle;Max_cycle;Signal;HPM_P1;HPM_P2
2021/05/05 00:00:36;;;;;;;5.32;1.73;;;;;;;8.79;58.41;98617.63;5014724;28;20084;-63
2021/05/05 00:03:02;;;;;;;2.90;2.03;;;;;;;8.79;58.47;98621.06;5016561;28;20046;-63
2021/05/05 00:05:27;;;;;;;2.97;2.00;;;;;;;8.79;58.63;98603.00;5014773;28;20497;-63
2021/05/05 00:07:53;;;;;;;4.28;2.47;;;;;;;8.76;58.63;98595.25;5015824;28;20113;-63
2021/05/05 00:10:18;;;;;;;3.40;2.58;;;;;;;8.77;58.67;98588.34;5016243;28;20131;-63
2021/05/05 00:12:44;;;;;;;5.75;3.05;;;;;;;8.77;58.36;98589.22;5014906;28;20084;-63
2021/05/05 00:15:15;;;;;;;4.55;2.42;;;;;;;8.75;58.46;98582.31;5014389;28;20060;-63
2021/05/05 00:17:41;;;;;;;4.10;2.63;;;;;;;8.76;58.46;98586.59;5014957;28;20398;-63
2021/05/05 00:20:08;;;;;;;3.83;3.03;;;;;;;8.75;58.45;98595.22;5015920;28;20041;-62
2021/05/05 00:22:34;;;;;;;3.08;2.40;;;;;;;8.75;58.48;98593.50;5015591;28;20560;-62
2021/05/05 00:25:00;;;;;;;5.45;2.22;;;;;;;8.73;58.75;98597.81;5014553;28;20095;-63
2021/05/05 00:27:26;;;;;;;2.95;2.45;;;;;;;8.75;58.36;98587.47;5015600;28;20041;-63
2021/05/05 00:29:51;;;;;;;3.20;2.40;;;;;;;8.72;58.37;98584.91;5015256;28;20398;-63
2021/05/05 00:32:17;;;;;;;5.80;3.25;;;;;;;8.70;58.44;98591.78;5014435;28;20045;-63
2021/05/05 00:34:42;;;;;;;3.08;2.00;;;;;;;8.71;58.70;98588.34;5014302;28;20038;-63
2021/05/05 00:37:07;;;;;;;5.00;2.50;;;;;;;8.71;58.45;98589.19;5015429;28;20030;-63
2021/05/05 00:39:38;;;;;;;5.00;3.15;;;;;;;8.71;58.61;98585.75;5014943;28;20041;-64
2021/05/05 00:42:04;;;;;;;5.30;2.47;;;;;;;8.70;58.30;98579.72;5014191;28;20095;-63
2021/05/05 00:44:30;;;;;;;4.65;2.53;;;;;;;8.71;58.53;98585.75;5013807;28;20029;-62
2021/05/05 00:46:55;;;;;;;6.10;2.35;;;;;;;8.70;58.68;98586.63;5013887;28;20034;-63
2021/05/05 00:49:23;;;;;;;5.78;2.97;;;;;;;8.68;58.72;98578.84;5014309;28;20049;-62
2021/05/05 00:51:49;;;;;;;11.32;3.55;;;;;;;8.70;58.69;98582.31;5014151;28;20068;-63
2021/05/05 00:54:14;;;;;;;10.13;2.95;;;;;;;8.69;58.49;98583.16;5013928;28;20442;-62
2021/05/05 00:56:40;;;;;;;8.35;2.80;;;;;;;8.68;58.48;98573.69;5013763;28;20037;-63
2021/05/05 00:59:05;;;;;;;9.27;3.72;;;;;;;8.68;58.76;98582.31;5013663;28;20040;-63
2021/05/05 01:01:31;;;;;;;15.02;3.70;;;;;;;8.67;59.15;98585.75;5014478;28;20062;-63
2021/05/05 01:03:56;;;;;;;9.75;3.22;;;;;;;8.67;58.76;98579.72;5013667;28;20030;-63
2021/05/05 01:06:22;;;;;;;14.38;4.47;;;;;;;8.66;58.99;98573.69;5014800;28;20050;-63
2021/05/05 01:08:48;;;;;;;9.82;3.83;;;;;;;8.67;58.87;98577.13;5014695;28;20555;-62
2021/05/05 01:11:14;;;;;;;12.35;3.95;;;;;;;8.65;58.82;98578.84;5013377;28;20069;-62
2021/05/05 01:13:42;;;;;;;14.93;5.40;;;;;;;8.64;58.91;98572.84;5014171;28;20040;-63
2021/05/05 01:16:07;;;;;;;12.80;3.15;;;;;;;8.64;59.01;98572.84;5013285;28;20477;-63
2021/05/05 01:18:33;;;;;;;9.07;3.65;;;;;;;8.66;58.80;98581.44;4997136;28;20056;-63
2021/05/05 01:20:59;;;;;;;13.80;3.83;;;;;;;8.63;58.87;98576.28;5014326;28;20051;-62
2021/05/05 01:23:26;;;;;;;10.68;3.25;;;;;;;8.64;59.03;98570.25;5013394;28;20065;-62
2021/05/05 01:25:52;;;;;;;10.50;4.22;;;;;;;8.64;58.95;98572.00;5013511;28;20034;-63
2021/05/05 01:28:18;;;;;;;14.38;3.92;;;;;;;8.63;58.85;98565.94;4996839;28;20033;-63
2021/05/05 01:30:44;;;;;;;12.48;4.05;;;;;;;8.63;58.70;98575.44;5014671;28;20077;-62
2021/05/05 01:33:14;;;;;;;15.20;3.90;;;;;;;8.62;58.91;98571.13;5013338;28;20034;-62
2021/05/05 01:35:39;;;;;;;15.18;4.75;;;;;;;8.62;58.89;98573.72;5014370;28;20029;-62
2021/05/05 01:38:07;;;;;;;14.02;4.50;;;;;;;8.61;58.69;98570.25;5012941;28;20080;-63
2021/05/05 01:40:34;;;;;;;17.65;3.83;;;;;;;8.61;59.02;98572.84;5013747;28;20070;-62
2021/05/05 01:43:02;;;;;;;17.05;4.15;;;;;;;8.60;59.21;98576.28;5014026;28;20125;-63
2021/05/05 01:45:27;;;;;;;16.63;4.53;;;;;;;8.58;59.17;98567.66;5014433;28;20065;-63
2021/05/05 01:47:55;;;;;;;9.45;3.25;;;;;;;8.58;58.93;98574.56;5013832;28;20065;-63
2021/05/05 01:50:21;;;;;;;14.18;4.47;;;;;;;8.58;59.09;98579.72;5012854;28;20085;-63
2021/05/05 01:52:47;;;;;;;12.32;3.72;;;;;;;8.55;58.99;98580.59;5013879;28;20436;-62
2021/05/05 01:55:12;;;;;;;11.35;4.70;;;;;;;8.53;59.00;98579.72;5012968;28;20038;-63
2021/05/05 01:57:42;;;;;;;14.75;5.32;;;;;;;8.52;58.80;98575.41;5013749;28;20060;-62
2021/05/05 02:00:18;;;;;;;18.58;4.55;;;;;;;8.51;58.96;98578.84;5013282;28;20100;-62
2021/05/05 02:02:44;;;;;;;15.40;4.22;;;;;;;8.49;59.19;98576.25;4996021;28;20058;-63
2021/05/05 02:05:11;;;;;;;22.85;4.07;;;;;;;8.48;59.02;98577.16;5013886;28;20030;-62
2021/05/05 02:07:37;;;;;;;14.27;4.18;;;;;;;8.49;59.13;98586.59;5013943;28;20057;-63
2021/05/05 02:10:06;;;;;;;13.93;4.35;;;;;;;8.48;59.17;98584.00;5012703;28;20089;-63
2021/05/05 02:12:31;;;;;;;15.32;4.85;;;;;;;8.47;59.22;98583.13;5012578;28;20038;-63
2021/05/05 02:14:56;;;;;;;21.10;4.65;;;;;;;8.48;59.23;98594.34;5013743;28;20125;-62
2021/05/05 02:17:22;;;;;;;16.70;4.22;;;;;;;8.46;59.13;98589.16;5012623;28;20042;-63
2021/05/05 02:19:48;;;;;;;12.35;3.45;;;;;;;8.45;59.09;98587.44;5013681;28;20042;-63
2021/05/05 02:22:13;;;;;;;9.30;3.72;;;;;;;8.42;59.08;98586.53;5013595;28;20116;-63
2021/05/05 02:24:39;;;;;;;12.60;4.35;;;;;;;8.42;59.22;98587.44;5013445;28;20042;-63
2021/05/05 02:27:06;;;;;;;18.95;4.40;;;;;;;8.42;59.04;98597.75;5012334;28;20081;-62
2021/05/05 02:29:31;;;;;;;15.88;4.82;;;;;;;8.40;59.33;98602.03;5013647;28;20128;-63
2021/05/05 02:31:57;;;;;;;12.80;4.13;;;;;;;8.38;59.44;98601.19;5013609;28;20161;-63
2021/05/05 02:34:23;;;;;;;10.45;3.30;;;;;;;8.38;59.35;98599.47;4996197;28;20042;-63
2021/05/05 02:36:50;;;;;;;14.30;3.35;;;;;;;8.37;59.27;98602.91;5013595;28;20040;-63
2021/05/05 02:39:17;;;;;;;19.13;4.47;;;;;;;8.35;59.41;98603.75;5012097;28;20038;-62
2021/05/05 02:41:43;;;;;;;18.85;4.03;;;;;;;8.33;59.27;98600.31;5012107;28;20128;-63
2021/05/05 02:44:11;;;;;;;12.32;4.70;;;;;;;8.33;59.45;98603.75;5012356;28;20073;-63
2021/05/05 02:46:37;;;;;;;14.10;3.78;;;;;;;8.35;59.22;98606.31;5012587;28;20045;-63
2021/05/05 02:49:04;;;;;;;12.35;4.50;;;;;;;8.34;59.41;98608.06;5013390;28;20045;-63
2021/05/05 02:51:29;;;;;;;14.30;4.25;;;;;;;8.35;59.24;98607.22;5013569;28;20037;-63
2021/05/05 02:53:55;;;;;;;13.75;3.95;;;;;;;8.36;59.29;98605.47;5013286;28;20042;-63
2021/05/05 02:56:20;;;;;;;15.30;4.40;;;;;;;8.36;59.30;98613.22;4995531;28;20511;-63
2021/05/05 02:58:46;;;;;;;11.75;4.35;;;;;;;8.34;59.19;98602.91;5013324;28;20396;-63
2021/05/05 03:01:12;;;;;;;14.07;4.97;;;;;;;8.36;59.67;98608.06;5013254;28;20560;-63
2021/05/05 03:03:37;;;;;;;9.02;4.28;;;;;;;8.36;59.69;98602.88;5011777;28;20126;-62
2021/05/05 03:06:03;;;;;;;13.10;3.92;;;;;;;8.36;59.71;98608.94;5016566;28;20524;-63
2021/05/05 03:08:28;;;;;;;10.85;3.90;;;;;;;8.36;59.64;98606.34;5017112;28;20510;-62
2021/05/05 03:10:54;;;;;;;13.63;4.07;;;;;;;8.36;59.65;98605.47;5016965;28;20048;-63
2021/05/05 03:13:19;;;;;;;15.05;4.25;;;;;;;8.35;59.68;98602.03;5016959;28;20045;-63
2021/05/05 03:15:45;;;;;;;15.40;4.10;;;;;;;8.36;59.59;98603.78;5016942;28;20096;-64
2021/05/05 03:18:10;;;;;;;16.25;4.03;;;;;;;8.36;59.59;98602.88;5016919;28;20038;-63
2021/05/05 03:20:36;;;;;;;10.65;3.80;;;;;;;8.35;59.47;98602.03;5015470;28;20042;-63
2021/05/05 03:23:02;;;;;;;13.38;3.88;;;;;;;8.35;59.27;98602.03;5015567;28;20037;-62
2021/05/05 03:25:28;;;;;;;13.43;4.80;;;;;;;8.34;59.68;98602.91;5016727;28;20077;-62
2021/05/05 03:27:53;;;;;;;12.02;5.10;;;;;;;8.35;59.82;98609.78;5015440;28;20061;-63
2021/05/05 03:30:20;;;;;;;21.25;4.10;;;;;;;8.35;59.45;98614.06;5015508;28;20512;-63
2021/05/05 03:32:45;;;;;;;21.02;4.90;;;;;;;8.36;59.75;98615.78;4999459;28;20044;-62
2021/05/05 03:35:11;;;;;;;19.23;5.72;;;;;;;8.34;59.55;98604.59;5016593;28;20046;-62
2021/05/05 03:37:37;;;;;;;13.43;5.07;;;;;;;8.34;59.82;98608.06;5015199;28;20393;-63
2021/05/05 03:40:08;;;;;;;17.50;4.82;;;;;;;8.34;59.60;98607.19;5015043;28;20172;-63
2021/05/05 03:42:33;;;;;;;14.30;5.18;;;;;;;8.33;59.80;98603.75;5015275;28;20037;-62
2021/05/05 03:45:00;;;;;;;12.68;4.00;;;;;;;8.34;59.52;98602.03;5016579;28;20037;-63
2021/05/05 03:47:26;;;;;;;13.57;4.50;;;;;;;8.33;59.35;98597.75;5014933;28;20038;-63
2021/05/05 03:49:51;;;;;;;10.98;4.63;;;;;;;8.30;59.62;98595.16;5016413;28;20405;-62
2021/05/05 03:52:17;;;;;;;12.50;5.07;;;;;;;8.30;59.82;98600.31;5016265;28;20142;-63
2021/05/05 03:54:42;;;;;;;11.20;4.30;;;;;;;8.28;59.60;98600.28;5014905;28;20037;-63
2021/05/05 03:57:10;;;;;;;19.08;5.10;;;;;;;8.25;59.75;98612.34;5016199;28;20460;-63
2021/05/05 03:59:35;;;;;;;20.67;5.15;;;;;;;8.26;59.78;98604.59;5016007;28;20042;-63
2021/05/05 04:02:01;;;;;;;15.50;4.13;;;;;;;8.25;59.47;98610.63;5015921;28;20049;-63
2021/05/05 04:04:26;;;;;;;11.10;4.22;;;;;;;8.22;59.55;98610.63;5014883;28;20060;-63
2021/05/05 04:06:52;;;;;;;14.05;5.50;;;;;;;8.21;59.82;98617.50;5014637;28;20474;-64
2021/05/05 04:09:18;;;;;;;14.10;4.20;;;;;;;8.21;59.36;98616.63;5014771;28;20038;-63
2021/05/05 04:11:44;;;;;;;10.15;4.25;;;;;;;8.20;59.81;98617.50;5016325;28;20041;-62
2021/05/05 04:14:12;;;;;;;16.40;5.57;;;;;;;8.18;59.80;98614.03;5014960;28;20171;-62
2021/05/05 04:16:37;;;;;;;12.65;4.15;;;;;;;8.15;59.74;98617.50;5014660;28;20052;-63
2021/05/05 04:19:06;;;;;;;12.30;4.40;;;;;;;8.14;59.96;98607.16;5015802;28;20121;-63
2021/05/05 04:21:31;;;;;;;10.90;4.13;;;;;;;8.13;59.86;98624.38;4998000;28;20065;-62
2021/05/05 04:23:57;;;;;;;12.93;4.78;;;;;;;8.12;59.66;98625.22;5015177;28;20512;-61
2021/05/05 04:26:22;;;;;;;13.73;4.80;;;;;;;8.11;59.74;98631.22;5015647;28;20042;-62
2021/05/05 04:28:48;;;;;;;11.43;4.00;;;;;;;8.11;59.75;98628.66;5015538;28;20087;-64
2021/05/05 04:31:14;;;;;;;8.18;4.03;;;;;;;8.10;59.75;98636.41;5014738;28;20046;-63
2021/05/05 04:33:42;;;;;;;8.00;3.60;;;;;;;8.08;59.85;98631.22;5014256;28;20168;-64
2021/05/05 04:36:07;;;;;;;13.70;4.78;;;;;;;8.10;59.63;98638.97;5014361;28;20045;-62
2021/05/05 04:38:33;;;;;;;11.75;4.00;;;;;;;8.06;59.85;98643.25;5015160;28;20401;-62
2021/05/05 04:40:58;;;;;;;13.52;4.35;;;;;;;8.05;59.81;98650.13;5014954;28;20158;-63
2021/05/05 04:43:24;;;;;;;8.93;3.95;;;;;;;8.05;59.86;98652.72;5015248;28;20501;-63
2021/05/05 04:45:49;;;;;;;12.55;3.50;;;;;;;8.06;59.96;98656.16;5015086;28;20036;-63
2021/05/05 04:48:15;;;;;;;8.43;3.15;;;;;;;8.05;60.22;98664.75;4997502;28;20501;-63
2021/05/05 04:50:40;;;;;;;11.48;4.00;;;;;;;8.05;60.23;98655.31;5015477;28;20128;-63
2021/05/05 04:53:06;;;;;;;14.65;4.25;;;;;;;8.05;60.12;98663.03;5015162;28;20379;-63
2021/05/05 04:55:31;;;;;;;11.10;3.88;;;;;;;8.04;60.02;98661.31;4997259;28;20076;-62
2021/05/05 04:57:57;;;;;;;10.63;3.85;;;;;;;8.07;59.75;98670.78;4997865;28;20034;-63
2021/05/05 05:00:23;;;;;;;10.18;4.00;;;;;;;8.06;59.85;98662.19;5013485;28;20057;-63
2021/05/05 05:02:48;;;;;;;14.07;3.70;;;;;;;8.06;60.01;98664.78;5014622;28;20058;-63
2021/05/05 05:05:14;;;;;;;9.45;4.28;;;;;;;8.05;59.96;98670.78;4997090;28;20111;-63
2021/05/05 05:07:39;;;;;;;9.95;3.88;;;;;;;8.04;60.29;98679.38;5013723;28;20125;-63
2021/05/05 05:10:06;;;;;;;9.05;3.78;;;;;;;8.05;59.75;98675.06;5014721;28;20489;-63
2021/05/05 05:12:31;;;;;;;11.32;4.00;;;;;;;8.06;60.08;98680.25;5014790;28;20041;-63
2021/05/05 05:14:57;;;;;;;7.57;3.08;;;;;;;8.03;59.90;98684.50;5013478;28;20041;-62
2021/05/05 05:17:22;;;;;;;9.07;3.35;;;;;;;8.04;59.97;98689.69;4997363;28;20129;-64
2021/05/05 05:19:48;;;;;;;7.78;3.67;;;;;;;8.04;59.87;98696.56;5014654;28;20064;-63
2021/05/05 05:22:17;;;;;;;10.20;4.00;;;;;;;8.03;59.91;98693.13;5014503;28;20038;-63
2021/05/05 05:24:42;;;;;;;11.70;3.50;;;;;;;8.04;59.84;98699.13;5013579;28;20038;-63
2021/05/05 05:27:13;;;;;;;5.53;3.40;;;;;;;8.05;59.94;98711.19;5013373;28;20045;-62
2021/05/05 05:29:39;;;;;;;9.95;3.78;;;;;;;8.03;59.80;98715.47;5014138;28;20034;-63
2021/05/05 05:32:04;;;;;;;9.77;3.28;;;;;;;8.01;59.88;98723.22;5014327;28;20041;-63
2021/05/05 05:34:30;;;;;;;9.10;3.72;;;;;;;7.98;60.30;98712.88;5014697;28;20042;-63
2021/05/05 05:36:56;;;;;;;9.45;3.20;;;;;;;7.99;60.40;98717.19;5014634;28;20481;-63
2021/05/05 05:39:21;;;;;;;10.13;4.43;;;;;;;7.98;60.14;98719.78;5014220;28;20084;-63
2021/05/05 05:41:46;;;;;;;8.20;3.92;;;;;;;7.97;60.26;98712.88;5012872;28;20401;-63
2021/05/05 05:44:13;;;;;;;8.48;4.68;;;;;;;7.97;60.21;98720.63;5012898;28;20045;-62
2021/05/05 05:46:38;;;;;;;7.38;3.60;;;;;;;7.96;60.48;98724.06;5013030;28;20049;-63
2021/05/05 05:49:08;;;;;;;9.07;4.30;;;;;;;7.96;60.22;98719.75;5012935;28;20026;-63
2021/05/05 05:51:35;;;;;;;10.43;3.92;;;;;;;7.97;60.45;98720.63;4996504;28;20493;-62
2021/05/05 05:54:01;;;;;;;8.82;4.43;;;;;;;7.98;60.39;98722.34;5013982;28;20038;-63
2021/05/05 05:56:26;;;;;;;15.00;4.00;;;;;;;7.99;60.37;98731.81;5012867;28;20117;-62
2021/05/05 05:58:54;;;;;;;9.65;4.10;;;;;;;7.98;60.58;98730.94;5014090;28;20080;-63
2021/05/05 06:01:19;;;;;;;10.50;3.83;;;;;;;7.98;60.33;98737.84;5013657;28;20030;-62
2021/05/05 06:03:45;;;;;;;9.93;4.22;;;;;;;8.00;60.49;98736.97;5013082;28;20040;-63
2021/05/05 06:06:13;;;;;;;7.85;3.90;;;;;;;8.01;60.24;98743.00;5011814;28;20042;-63
2021/05/05 06:08:39;;;;;;;7.38;3.70;;;;;;;8.01;60.25;98740.44;5011668;28;20080;-63
2021/05/05 06:11:04;;;;;;;8.02;4.53;;;;;;;8.02;60.27;98737.00;5012150;28;20069;-63
2021/05/05 06:13:31;;;;;;;9.20;4.05;;;;;;;8.01;60.36;98746.44;5013444;28;20034;-63
2021/05/05 06:15:57;;;;;;;10.57;4.18;;;;;;;8.02;60.46;98752.47;5012905;28;20156;-62
2021/05/05 06:18:22;;;;;;;7.47;4.03;;;;;;;8.01;60.51;98750.75;5013249;28;20124;-63
2021/05/05 06:20:48;;;;;;;6.90;4.05;;;;;;;8.01;60.75;98750.75;5011302;28;20042;-63
2021/05/05 06:23:13;;;;;;;11.27;3.78;;;;;;;8.00;60.52;98754.19;5012651;28;20511;-63
2021/05/05 06:25:39;;;;;;;8.02;4.07;;;;;;;8.00;60.82;98761.94;5012124;28;20091;-62
2021/05/05 06:28:04;;;;;;;9.32;4.40;;;;;;;7.99;60.26;98758.47;5012932;28;20529;-62
2021/05/05 06:30:30;;;;;;;15.20;5.03;;;;;;;7.99;60.72;98758.47;5012468;28;20030;-62
2021/05/05 06:32:55;;;;;;;11.50;4.68;;;;;;;7.99;60.50;98771.38;5013052;28;20125;-64
2021/05/05 06:35:21;;;;;;;7.45;4.75;;;;;;;7.99;60.84;98763.63;5011174;28;20038;-63
2021/05/05 06:37:46;;;;;;;12.35;4.40;;;;;;;7.99;60.70;98771.38;5011228;28;20559;-62
2021/05/05 06:40:13;;;;;;;6.72;3.90;;;;;;;7.99;60.99;98776.53;5014124;28;20401;-63
2021/05/05 06:42:38;;;;;;;12.55;4.40;;;;;;;7.98;60.66;98772.22;5015035;28;20037;-63
2021/05/05 06:45:05;;;;;;;8.25;4.75;;;;;;;7.99;60.69;98781.69;5015065;28;20045;-62
2021/05/05 06:47:32;;;;;;;7.63;4.68;;;;;;;7.99;60.85;98780.84;5016239;28;20041;-62
2021/05/05 06:49:57;;;;;;;6.65;3.72;;;;;;;7.98;60.83;98773.94;5015983;28;20026;-63
2021/05/05 06:52:23;;;;;;;10.75;4.28;;;;;;;7.98;60.69;98781.69;5016013;28;20061;-63
2021/05/05 06:54:49;;;;;;;7.40;3.53;;;;;;;7.98;60.60;98779.97;5014646;28;20065;-62
2021/05/05 06:57:14;;;;;;;9.57;5.13;;;;;;;7.99;60.76;98783.41;5016383;28;20087;-63
2021/05/05 06:59:40;;;;;;;10.68;4.32;;;;;;;7.97;61.07;98785.97;5014700;28;20079;-63
2021/05/05 07:02:05;;;;;;;8.77;5.03;;;;;;;7.98;60.70;98803.19;4994582;28;614804;-62
2021/05/05 07:04:31;;;;;;;10.02;5.28;;;;;;;7.99;60.73;98794.59;5017120;28;20129;-63
2021/05/05 07:06:56;;;;;;;10.50;4.45;;;;;;;8.00;61.08;98787.72;4999554;28;20556;-63
2021/05/05 07:09:22;;;;;;;9.65;4.40;;;;;;;8.00;60.77;98778.25;5017021;28;20050;-63
2021/05/05 07:11:48;;;;;;;5.45;4.53;;;;;;;8.01;60.72;98789.47;5015850;28;20384;-63
2021/05/05 07:14:13;;;;;;;9.55;4.43;;;;;;;8.00;60.63;98786.00;5015665;28;20481;-62
2021/05/05 07:16:39;;;;;;;6.93;4.40;;;;;;;8.00;60.67;98787.72;5015794;28;20030;-63
2021/05/05 07:19:04;;;;;;;5.25;3.92;;;;;;;8.01;60.89;98792.03;5016764;28;20053;-63
2021/05/05 07:21:31;;;;;;;7.53;3.70;;;;;;;7.98;60.83;98795.44;5016803;28;20095;-62
2021/05/05 07:23:57;;;;;;;8.50;3.63;;;;;;;7.98;60.69;98795.44;5016547;28;20041;-62
2021/05/05 07:26:23;;;;;;;6.90;3.85;;;;;;;7.99;60.82;98801.47;5015668;28;20049;-63
2021/05/05 07:28:48;;;;;;;11.10;4.38;;;;;;;7.97;61.10;98795.44;5016903;28;20042;-63
2021/05/05 07:31:14;;;;;;;11.13;3.75;;;;;;;7.96;61.11;98806.63;5015240;28;20036;-63
2021/05/05 07:33:40;;;;;;;3.83;3.30;;;;;;;7.96;60.60;98809.19;5016139;28;20402;-63
2021/05/05 07:36:15;;;;;;;6.35;3.45;;;;;;;7.95;60.82;98822.94;5015436;28;20030;-63
2021/05/05 07:48:55;;;;;;;5.35;3.72;;;;;;;7.96;61.10;98833.25;5016310;28;20393;-64
2021/05/05 07:51:21;;;;;;;7.45;3.95;;;;;;;7.96;61.11;98835.00;5016097;28;20120;-62
2021/05/05 07:53:47;;;;;;;6.40;4.22;;;;;;;7.92;60.96;98840.13;4998838;28;20128;-63
2021/05/05 07:56:12;;;;;;;7.40;4.10;;;;;;;7.91;61.23;98843.56;5015864;28;20037;-63
2021/05/05 07:58:40;;;;;;;8.07;4.65;;;;;;;7.93;60.81;98836.69;5014911;28;20046;-63
2021/05/05 08:01:05;;;;;;;6.75;4.50;;;;;;;7.94;61.11;98845.31;5014712;28;20042;-63
2021/05/05 08:03:31;;;;;;;5.30;3.95;;;;;;;7.94;61.17;98860.78;5015358;28;20136;-63
2021/05/05 08:05:56;;;;;;;5.63;3.80;;;;;;;7.93;60.90;98877.97;5015818;28;20038;-63
2021/05/05 08:08:22;;;;;;;8.55;4.30;;;;;;;7.92;60.69;98888.28;5016040;28;20535;-62
2021/05/05 08:10:47;;;;;;;5.15;3.88;;;;;;;7.92;61.30;98888.28;5015877;28;20080;-63
2021/05/05 08:13:13;;;;;;;6.90;2.88;;;;;;;7.89;60.62;98896.00;5015947;28;20450;-63
2021/05/05 08:15:38;;;;;;;4.60;3.22;;;;;;;7.84;60.88;98911.44;5015782;28;20454;-62
2021/05/05 08:18:06;;;;;;;3.88;2.70;;;;;;;7.80;61.07;98927.75;5015818;28;20394;-62
2021/05/05 08:20:35;;;;;;;4.70;2.42;;;;;;;7.71;60.92;98948.28;5015748;28;20030;-65
2021/05/05 08:23:08;;;;;;;4.70;2.40;;;;;;;7.65;61.18;98933.59;5015558;28;20477;-63
2021/05/05 08:25:33;;;;;;;2.92;2.30;;;;;;;7.64;61.16;98925.88;5014594;28;20041;-63
2021/05/05 08:28:00;;;;;;;4.78;2.45;;;;;;;7.61;61.28;98913.81;5015632;28;20033;-62
2021/05/05 08:30:25;;;;;;;2.35;1.80;;;;;;;7.59;60.86;98912.94;5015602;28;20121;-63
2021/05/05 08:32:51;;;;;;;4.25;2.40;;;;;;;7.56;60.75;98912.91;5015485;28;20524;-62
2021/05/05 08:35:16;;;;;;;2.50;1.85;;;;;;;7.53;60.93;98918.91;5014369;28;20120;-63
2021/05/05 08:37:43;;;;;;;2.65;2.15;;;;;;;7.55;60.97;98916.31;5015735;28;20033;-62
2021/05/05 08:40:11;;;;;;;2.63;1.70;;;;;;;7.55;61.29;98926.63;5014282;28;20034;-62
2021/05/05 08:42:39;;;;;;;3.22;1.92;;;;;;;7.55;61.06;98930.06;4997721;28;20108;-62
2021/05/05 08:45:18;;;;;;;2.30;1.60;;;;;;;7.56;60.91;98931.78;5014806;28;20503;-62
2021/05/05 08:47:48;;;;;;;3.10;2.15;;;;;;;7.56;61.12;98939.53;5015727;28;20383;-63
2021/05/05 08:50:18;;;;;;;3.58;1.60;;;;;;;7.56;61.21;98934.38;5013814;28;20044;-63
2021/05/05 08:52:44;;;;;;;2.35;2.13;;;;;;;7.57;61.81;98938.69;5015317;28;20136;-63
2021/05/05 08:55:12;;;;;;;2.17;1.98;;;;;;;7.59;61.29;98949.88;5014959;28;20069;-63
2021/05/05 08:57:37;;;;;;;2.75;1.80;;;;;;;7.61;61.11;98952.50;5015083;28;20045;-63
2021/05/05 09:00:12;;;;;;;3.53;2.08;;;;;;;7.60;61.36;98953.34;5013575;28;20034;-63
2021/05/05 09:02:37;;;;;;;5.85;2.17;;;;;;;7.61;61.10;98961.09;5014018;28;20141;-63
2021/05/05 09:05:09;;;;;;;2.53;1.83;;;;;;;7.64;61.08;98961.97;5015105;28;20462;-63
2021/05/05 09:07:39;;;;;;;6.95;1.90;;;;;;;7.65;61.48;98974.00;5013682;28;20096;-63
2021/05/05 09:10:11;;;;;;;3.53;2.20;;;;;;;7.67;61.47;98980.91;5014993;28;20042;-62
2021/05/05 09:12:41;;;;;;;4.57;2.05;;;;;;;7.69;61.36;98976.63;5014783;28;20044;-63
2021/05/05 09:15:22;;;;;;;4.47;2.28;;;;;;;7.71;61.50;98984.38;5014666;28;20033;-63
2021/05/05 09:17:52;;;;;;;7.40;2.38;;;;;;;7.75;61.56;98983.56;5015040;28;20111;-63
2021/05/05 09:20:31;;;;;;;9.50;3.00;;;;;;;7.77;61.83;98990.50;5014711;28;20575;-64
2021/05/05 09:22:58;;;;;;;8.07;2.38;;;;;;;7.78;61.78;98987.03;5012888;28;20030;-63
2021/05/05 09:25:45;;;;;;;4.95;3.05;;;;;;;7.78;61.52;98993.94;5014867;28;20034;-63
2021/05/05 09:28:21;;;;;;;8.52;2.58;;;;;;;7.78;61.54;98999.94;5013424;28;20042;-63
2021/05/05 09:30:47;;;;;;;11.05;4.18;;;;;;;7.76;61.50;98993.91;5014807;28;20135;-63
2021/05/05 09:33:23;;;;;;;4.95;3.15;;;;;;;7.78;61.70;99006.81;5014287;28;20569;-63
2021/05/05 09:35:55;;;;;;;8.93;3.22;;;;;;;7.77;61.53;99021.44;5014438;28;20041;-63
2021/05/05 09:38:37;;;;;;;5.40;2.50;;;;;;;7.78;61.83;99024.88;5014588;28;20040;-63
2021/05/05 09:41:02;;;;;;;5.85;2.65;;;;;;;7.81;61.72;99026.63;5013214;28;20034;-63
2021/05/05 09:43:35;;;;;;;5.75;2.38;;;;;;;7.77;61.77;99010.25;5014183;28;20397;-63
2021/05/05 09:46:00;;;;;;;6.15;2.63;;;;;;;7.77;61.42;99030.88;5012419;28;20042;-63
2021/05/05 09:48:28;;;;;;;4.63;2.40;;;;;;;7.73;61.65;99024.84;5014414;28;20057;-63
2021/05/05 09:50:59;;;;;;;4.88;2.40;;;;;;;7.72;61.56;99029.97;5012931;28;20034;-62
2021/05/05 09:53:27;;;;;;;8.88;2.83;;;;;;;7.69;61.97;99023.06;5013704;28;20088;-64
2021/05/05 09:55:53;;;;;;;4.97;2.65;;;;;;;7.70;61.79;99016.19;5013943;28;20030;-63
2021/05/05 09:58:27;;;;;;;5.63;2.40;;;;;;;7.69;61.51;99027.38;5013711;28;20068;-63
2021/05/05 10:01:10;;;;;;;4.28;2.42;;;;;;;7.65;61.55;99026.44;4996388;28;20176;-63
2021/05/05 10:03:36;;;;;;;4.28;2.38;;;;;;;7.69;61.92;99027.38;5012389;28;20413;-63
2021/05/05 10:06:20;;;;;;;4.38;2.58;;;;;;;7.76;62.03;99031.72;5013956;28;20038;-63
2021/05/05 10:08:50;;;;;;;5.80;2.58;;;;;;;7.84;61.84;99035.28;5013515;28;20042;-62
2021/05/05 10:11:20;;;;;;;4.68;3.05;;;;;;;7.90;62.12;99039.63;5014138;28;20060;-62
2021/05/05 10:13:49;;;;;;;5.47;3.13;;;;;;;7.96;61.89;99036.25;5012734;28;20050;-62
2021/05/05 10:16:15;;;;;;;7.53;2.92;;;;;;;7.99;62.13;99039.72;5012994;28;20061;-64
2021/05/05 10:18:44;;;;;;;7.80;3.25;;;;;;;8.04;62.34;99032.91;5013564;28;20172;-62
2021/05/05 10:21:12;;;;;;;5.45;3.20;;;;;;;8.12;62.16;99038.13;5013831;28;20057;-63
2021/05/05 10:23:39;;;;;;;5.75;3.42;;;;;;;8.18;61.90;99029.59;5013641;28;20049;-63
2021/05/05 10:26:05;;;;;;;10.98;3.13;;;;;;;8.16;61.76;99034.75;5013956;28;20037;-62
2021/05/05 10:28:31;;;;;;;7.07;3.42;;;;;;;8.17;61.52;99048.50;5012391;28;20171;-63
2021/05/05 10:30:57;;;;;;;6.20;2.95;;;;;;;8.08;61.69;99082.81;5012428;28;20026;-63
2021/05/05 10:33:26;;;;;;;4.28;2.92;;;;;;;8.06;61.59;99077.66;5012792;28;20045;-63
2021/05/05 10:35:52;;;;;;;4.85;2.35;;;;;;;7.95;61.44;99086.97;5013431;28;20034;-62
2021/05/05 10:38:35;;;;;;;4.38;2.85;;;;;;;7.95;61.55;99078.38;5012044;28;20108;-62
2021/05/05 10:41:11;;;;;;;4.13;2.35;;;;;;;7.95;61.58;99076.66;5012555;28;20212;-63
2021/05/05 10:43:58;;;;;;;4.22;2.35;;;;;;;7.90;61.26;99086.91;5012430;28;20026;-62
2021/05/05 10:46:34;;;;;;;5.45;2.58;;;;;;;7.89;61.60;99092.94;5013021;28;20034;-63
2021/05/05 10:49:17;;;;;;;3.30;2.10;;;;;;;7.86;61.36;99095.47;5013768;28;20045;-63
2021/05/05 10:51:49;;;;;;;9.82;3.17;;;;;;;7.87;61.36;99092.03;5013690;28;20041;-62
2021/05/05 10:54:20;;;;;;;7.50;3.13;;;;;;;7.95;61.34;99093.84;5012075;28;20045;-63
2021/05/05 10:57:08;;;;;;;9.60;3.10;;;;;;;8.00;61.27;99087.91;5013346;28;20045;-63
2021/05/05 11:00:14;;;;;;;7.70;2.90;;;;;;;8.09;61.37;99089.72;5013855;28;20103;-63
2021/05/05 11:02:40;;;;;;;7.28;3.58;;;;;;;8.16;61.72;99088.94;5002733;28;20053;-62
2021/05/05 11:05:11;;;;;;;4.95;2.50;;;;;;;8.22;61.98;99096.72;5013405;28;20083;-62
2021/05/05 11:07:49;;;;;;;5.47;2.70;;;;;;;8.28;61.40;99100.25;5013335;28;20030;-63
2021/05/05 11:10:36;;;;;;;8.07;3.05;;;;;;;8.29;61.69;99105.41;5013256;28;20041;-62
2021/05/05 11:13:03;;;;;;;3.47;2.28;;;;;;;8.29;61.28;99117.47;5013275;28;20038;-62
2021/05/05 11:15:41;;;;;;;5.85;2.92;;;;;;;8.31;61.54;99110.59;5013271;28;20397;-62
2021/05/05 11:18:29;;;;;;;5.93;3.20;;;;;;;8.32;61.47;99118.34;5013228;28;20592;-63
2021/05/05 11:20:55;;;;;;;5.32;2.50;;;;;;;8.37;61.60;99116.69;5012804;28;20034;-63
2021/05/05 11:23:33;;;;;;;5.85;2.78;;;;;;;8.39;61.58;99116.69;5013310;28;20080;-64
2021/05/05 11:26:22;;;;;;;10.80;3.35;;;;;;;8.44;61.42;99121.91;5013808;28;20044;-63
2021/05/05 11:28:59;;;;;;;5.82;2.78;;;;;;;8.45;61.56;99132.25;5016772;28;20042;-63
2021/05/05 11:31:47;;;;;;;6.22;2.47;;;;;;;8.50;61.40;99127.16;5016614;28;20042;-63
2021/05/05 11:34:22;;;;;;;8.23;3.42;;;;;;;8.53;61.37;99127.19;5016680;28;20033;-63
2021/05/05 11:37:15;;;;;;;4.72;2.67;;;;;;;8.56;61.54;99126.34;5016337;28;20042;-63
2021/05/05 11:39:44;;;;;;;5.93;2.75;;;;;;;8.57;61.41;99128.09;5002755;28;20074;-63
2021/05/05 11:42:15;;;;;;;6.32;3.20;;;;;;;8.62;61.20;99149.66;5016332;28;20038;-63
2021/05/05 11:44:45;;;;;;;10.45;3.47;;;;;;;8.61;61.19;99153.97;5016683;28;20128;-63
2021/05/05 11:47:13;;;;;;;6.22;2.72;;;;;;;8.62;61.13;99160.00;5015873;28;20468;-63
2021/05/05 11:49:46;;;;;;;8.57;3.17;;;;;;;8.60;61.19;99164.28;5015233;28;20026;-63
2021/05/05 11:52:27;;;;;;;6.97;2.53;;;;;;;8.61;61.39;99164.28;5016362;28;20038;-63